sensor_id;sensor_type;location;lat;lon;timestamp;temperature;humidity
27376;DHT22;14844;51.302;6.354;2023-08-17T00:01:46;18.50;99.90
27376;DHT22;14844;51.302;6.354;2023-08-17T00:04:12;18.40;99.90
27376;DHT22;14844;51.302;6.354;2023-08-17T00:06:38;18.30;99.90
27376;DHT22;14844;51.302;6.354;2023-08-17T00:09:03;18.10;99.90
27376;DHT22;14844;51.302;6.354;2023-08-17T00:11:29;18.00;99.90
27376;DHT22;14844;51.302;6.354;2023-08-17T00:13:54;17.90;99.90
27376;DHT22;14844;51.302;6.354;2023-08-17T00:16:20;17.70;99.90
27376;DHT22;14844;51.302;6.354;2023-08-17T00:18:45;17.70;99.90
27376;DHT22;14844;51.302;6.354;2023-08-17T00:21:11;17.60;99.90
27376;DHT22;14844;51.302;6.354;2023-08-17T00:23:36;17.60;99.90
27376;DHT22;14844;51.302;6.354;2023-08-17T00:26:02;17.60;99.90
27376;DHT22;14844;51.302;6.354;2023-08-17T00:28:27;17.60;99.90
27376;DHT22;14844;51.302;6.354;2023-08-17T00:30:53;17.50;99.90
27376;DHT22;14844;51.302;6.354;2023-08-17T00:33:18;17.50;99.90
27376;DHT22;14844;51.302;6.354;2023-08-17T00:35:44;17.40;99.90
27376;DHT22;14844;51.302;6.354;2023-08-17T00:38:11;17.40;99.90
27376;DHT22;14844;51.302;6.354;2023-08-17T00:40:37;17.30;99.90
27376;DHT22;14844;51.302;6.354;2023-08-17T00:43:02;17.30;99.90
27376;DHT22;14844;51.302;6.354;2023-08-17T00:45:28;17.30;99.90
27376;DHT22;14844;51.302;6.354;2023-08-17T00:47:57;17.30;99.90
27376;DHT22;14844;51.302;6.354;2023-08-17T00:50:23;17.20;99.90
27376;DHT22;14844;51.302;6.354;2023-08-17T00:52:49;17.20;99.90
27376;DHT22;14844;51.302;6.354;2023-08-17T00:55:16;17.20;99.90
27376;DHT22;14844;51.302;6.354;2023-08-17T00:57:41;17.20;99.90
27376;DHT22;14844;51.302;6.354;2023-08-17T01:00:08;17.10;99.90
27376;DHT22;14844;51.302;6.354;2023-08-17T01:02:34;17.20;99.90
27376;DHT22;14844;51.302;6.354;2023-08-17T01:05:00;17.10;99.90
27376;DHT22;14844;51.302;6.354;2023-08-17T01:07:25;17.10;99.90
27376;DHT22;14844;51.302;6.354;2023-08-17T01:09:51;17.10;99.90
27376;DHT22;14844;51.302;6.354;2023-08-17T01:12:23;17.00;99.90
27376;DHT22;14844;51.302;6.354;2023-08-17T01:14:59;17.00;99.90
27376;DHT22;14844;51.302;6.354;2023-08-17T01:17:28;17.00;99.90
27376;DHT22;14844;51.302;6.354;2023-08-17T01:19:54;17.00;99.90
27376;DHT22;14844;51.302;6.354;2023-08-17T01:22:21;17.00;99.90
27376;DHT22;14844;51.302;6.354;2023-08-17T01:24:47;16.90;99.90
27376;DHT22;14844;51.302;6.354;2023-08-17T01:27:13;16.90;99.90
27376;DHT22;14844;51.302;6.354;2023-08-17T01:29:38;16.90;99.90
27376;DHT22;14844;51.302;6.354;2023-08-17T01:32:10;17.00;99.90
27376;DHT22;14844;51.302;6.354;2023-08-17T01:34:43;17.00;99.90
27376;DHT22;14844;51.302;6.354;2023-08-17T01:37:10;17.10;99.90
27376;DHT22;14844;51.302;6.354;2023-08-17T01:39:41;17.00;99.90
27376;DHT22;14844;51.302;6.354;2023-08-17T01:42:08;17.10;99.90
27376;DHT22;14844;51.302;6.354;2023-08-17T01:44:34;17.10;99.90
27376;DHT22;14844;51.302;6.354;2023-08-17T01:46:59;17.20;99.90
27376;DHT22;14844;51.302;6.354;2023-08-17T01:49:25;17.20;99.90
27376;DHT22;14844;51.302;6.354;2023-08-17T01:51:50;17.20;99.90
27376;DHT22;14844;51.302;6.354;2023-08-17T01:54:16;17.30;99.90
27376;DHT22;14844;51.302;6.354;2023-08-17T01:56:41;17.30;99.90
27376;DHT22;14844;51.302;6.354;2023-08-17T01:59:06;17.40;99.90
27376;DHT22;14844;51.302;6.354;2023-08-17T02:01:32;17.40;99.90
27376;DHT22;14844;51.302;6.354;2023-08-17T02:03:57;17.40;99.90
27376;DHT22;14844;51.302;6.354;2023-08-17T02:06:25;17.50;99.90
27376;DHT22;14844;51.302;6.354;2023-08-17T02:08:50;17.50;99.90
27376;DHT22;14844;51.302;6.354;2023-08-17T02:11:17;17.60;99.90
27376;DHT22;14844;51.302;6.354;2023-08-17T02:13:42;17.60;99.90
27376;DHT22;14844;51.302;6.354;2023-08-17T02:16:07;17.50;99.90
27376;DHT22;14844;51.302;6.354;2023-08-17T02:18:33;17.50;99.90
27376;DHT22;14844;51.302;6.354;2023-08-17T02:21:00;17.50;99.90
27376;DHT22;14844;51.302;6.354;2023-08-17T02:23:25;17.50;99.90
27376;DHT22;14844;51.302;6.354;2023-08-17T02:25:51;17.50;99.90
27376;DHT22;14844;51.302;6.354;2023-08-17T02:28:16;17.50;99.90
27376;DHT22;14844;51.302;6.354;2023-08-17T02:30:42;17.40;99.90
27376;DHT22;14844;51.302;6.354;2023-08-17T02:33:08;17.40;99.90
27376;DHT22;14844;51.302;6.354;2023-08-17T02:35:33;17.40;99.90
27376;DHT22;14844;51.302;6.354;2023-08-17T02:37:59;17.30;99.90
27376;DHT22;14844;51.302;6.354;2023-08-17T02:40:24;17.30;99.90
27376;DHT22;14844;51.302;6.354;2023-08-17T02:42:50;17.30;99.90
27376;DHT22;14844;51.302;6.354;2023-08-17T02:45:15;17.30;99.90
27376;DHT22;14844;51.302;6.354;2023-08-17T02:47:41;17.30;99.90
27376;DHT22;14844;51.302;6.354;2023-08-17T02:50:06;17.30;99.90
27376;DHT22;14844;51.302;6.354;2023-08-17T02:52:32;17.30;99.90
27376;DHT22;14844;51.302;6.354;2023-08-17T02:54:57;17.30;99.90
27376;DHT22;14844;51.302;6.354;2023-08-17T02:57:23;17.20;99.90
27376;DHT22;14844;51.302;6.354;2023-08-17T02:59:49;17.30;99.90
27376;DHT22;14844;51.302;6.354;2023-08-17T03:02:14;17.30;99.90
27376;DHT22;14844;51.302;6.354;2023-08-17T03:04:40;17.30;99.90
27376;DHT22;14844;51.302;6.354;2023-08-17T03:07:06;17.30;99.90
27376;DHT22;14844;51.302;6.354;2023-08-17T03:09:31;17.30;99.90
27376;DHT22;14844;51.302;6.354;2023-08-17T03:11:57;17.30;99.90
27376;DHT22;14844;51.302;6.354;2023-08-17T03:14:22;17.30;99.90
27376;DHT22;14844;51.302;6.354;2023-08-17T03:16:47;17.30;99.90
27376;DHT22;14844;51.302;6.354;2023-08-17T03:19:13;17.30;99.90
27376;DHT22;14844;51.302;6.354;2023-08-17T03:21:38;17.20;99.90
27376;DHT22;14844;51.302;6.354;2023-08-17T03:24:04;17.20;99.90
27376;DHT22;14844;51.302;6.354;2023-08-17T03:26:30;17.20;99.90
27376;DHT22;14844;51.302;6.354;2023-08-17T03:28:55;17.20;99.90
27376;DHT22;14844;51.302;6.354;2023-08-17T03:31:21;17.10;99.90
27376;DHT22;14844;51.302;6.354;2023-08-17T03:33:47;17.10;99.90
27376;DHT22;14844;51.302;6.354;2023-08-17T03:36:12;17.00;99.90
27376;DHT22;14844;51.302;6.354;2023-08-17T03:38:37;17.00;99.90
27376;DHT22;14844;51.302;6.354;2023-08-17T03:41:04;17.00;99.90
27376;DHT22;14844;51.302;6.354;2023-08-17T03:43:30;16.90;99.90
27376;DHT22;14844;51.302;6.354;2023-08-17T03:45:55;16.90;99.90
27376;DHT22;14844;51.302;6.354;2023-08-17T03:48:21;16.80;99.90
27376;DHT22;14844;51.302;6.354;2023-08-17T03:50:51;16.70;99.90
27376;DHT22;14844;51.302;6.354;2023-08-17T03:53:16;16.70;99.90
27376;DHT22;14844;51.302;6.354;2023-08-17T03:55:45;16.70;99.90
27376;DHT22;14844;51.302;6.354;2023-08-17T03:58:11;16.70;99.90
27376;DHT22;14844;51.302;6.354;2023-08-17T04:00:36;16.70;99.90
27376;DHT22;14844;51.302;6.354;2023-08-17T04:03:02;16.70;99.90
27376;DHT22;14844;51.302;6.354;2023-08-17T04:05:27;16.70;99.90
27376;DHT22;14844;51.302;6.354;2023-08-17T04:07:53;16.70;99.90
27376;DHT22;14844;51.302;6.354;2023-08-17T04:10:18;16.70;99.90
27376;DHT22;14844;51.302;6.354;2023-08-17T04:12:44;16.70;99.90
27376;DHT22;14844;51.302;6.354;2023-08-17T04:15:09;16.60;99.90
27376;DHT22;14844;51.302;6.354;2023-08-17T04:17:35;16.60;99.90
27376;DHT22;14844;51.302;6.354;2023-08-17T04:20:00;16.60;99.90
27376;DHT22;14844;51.302;6.354;2023-08-17T04:22:26;16.60;99.90
27376;DHT22;14844;51.302;6.354;2023-08-17T04:24:51;16.60;99.90
27376;DHT22;14844;51.302;6.354;2023-08-17T04:27:17;16.60;99.90
27376;DHT22;14844;51.302;6.354;2023-08-17T04:29:42;16.50;99.90
27376;DHT22;14844;51.302;6.354;2023-08-17T04:32:13;16.50;99.90
27376;DHT22;14844;51.302;6.354;2023-08-17T04:34:38;16.50;99.90
27376;DHT22;14844;51.302;6.354;2023-08-17T04:37:04;16.60;99.90
27376;DHT22;14844;51.302;6.354;2023-08-17T04:39:29;16.60;99.90
27376;DHT22;14844;51.302;6.354;2023-08-17T04:41:55;16.60;99.90
27376;DHT22;14844;51.302;6.354;2023-08-17T04:44:20;16.60;99.90
27376;DHT22;14844;51.302;6.354;2023-08-17T04:46:46;16.70;99.90
27376;DHT22;14844;51.302;6.354;2023-08-17T04:49:11;16.70;99.90
27376;DHT22;14844;51.302;6.354;2023-08-17T04:51:36;16.70;99.90
27376;DHT22;14844;51.302;6.354;2023-08-17T04:54:02;16.70;99.90
27376;DHT22;14844;51.302;6.354;2023-08-17T04:56:27;16.70;99.90
27376;DHT22;14844;51.302;6.354;2023-08-17T04:58:53;16.70;99.90
27376;DHT22;14844;51.302;6.354;2023-08-17T05:01:18;16.70;99.90
27376;DHT22;14844;51.302;6.354;2023-08-17T05:03:44;16.80;99.90
27376;DHT22;14844;51.302;6.354;2023-08-17T05:06:09;16.80;99.90
27376;DHT22;14844;51.302;6.354;2023-08-17T05:08:35;16.80;99.90
27376;DHT22;14844;51.302;6.354;2023-08-17T05:11:00;16.90;99.90
27376;DHT22;14844;51.302;6.354;2023-08-17T05:13:26;16.90;99.90
27376;DHT22;14844;51.302;6.354;2023-08-17T05:15:51;16.90;99.90
27376;DHT22;14844;51.302;6.354;2023-08-17T05:18:17;17.00;99.90
27376;DHT22;14844;51.302;6.354;2023-08-17T05:20:42;17.10;99.90
27376;DHT22;14844;51.302;6.354;2023-08-17T05:23:08;17.10;99.90
27376;DHT22;14844;51.302;6.354;2023-08-17T05:25:33;17.10;99.90
27376;DHT22;14844;51.302;6.354;2023-08-17T05:27:59;17.10;99.90
27376;DHT22;14844;51.302;6.354;2023-08-17T05:30:24;17.20;99.90
27376;DHT22;14844;51.302;6.354;2023-08-17T05:32:50;17.30;99.90
27376;DHT22;14844;51.302;6.354;2023-08-17T05:35:15;17.30;99.90
27376;DHT22;14844;51.302;6.354;2023-08-17T05:37:41;17.40;99.90
27376;DHT22;14844;51.302;6.354;2023-08-17T05:40:07;17.40;99.90
27376;DHT22;14844;51.302;6.354;2023-08-17T05:42:34;17.40;99.90
27376;DHT22;14844;51.302;6.354;2023-08-17T05:44:59;17.30;99.90
27376;DHT22;14844;51.302;6.354;2023-08-17T05:47:25;17.40;99.90
27376;DHT22;14844;51.302;6.354;2023-08-17T05:49:50;17.40;99.90
27376;DHT22;14844;51.302;6.354;2023-08-17T05:52:15;17.50;99.90
27376;DHT22;14844;51.302;6.354;2023-08-17T05:54:41;17.60;99.90
27376;DHT22;14844;51.302;6.354;2023-08-17T05:57:08;17.60;99.90
27376;DHT22;14844;51.302;6.354;2023-08-17T05:59:33;17.60;99.90
27376;DHT22;14844;51.302;6.354;2023-08-17T06:01:59;17.60;99.90
27376;DHT22;14844;51.302;6.354;2023-08-17T06:04:24;17.60;99.90
27376;DHT22;14844;51.302;6.354;2023-08-17T06:06:49;17.70;99.90
27376;DHT22;14844;51.302;6.354;2023-08-17T06:09:15;17.70;99.90
27376;DHT22;14844;51.302;6.354;2023-08-17T06:11:40;17.70;99.90
27376;DHT22;14844;51.302;6.354;2023-08-17T06:14:06;17.80;99.90
27376;DHT22;14844;51.302;6.354;2023-08-17T06:16:32;17.80;99.90
27376;DHT22;14844;51.302;6.354;2023-08-17T06:18:57;17.80;99.90
27376;DHT22;14844;51.302;6.354;2023-08-17T06:21:23;17.80;99.90
27376;DHT22;14844;51.302;6.354;2023-08-17T06:23:48;17.90;99.90
27376;DHT22;14844;51.302;6.354;2023-08-17T06:26:14;17.90;99.90
27376;DHT22;14844;51.302;6.354;2023-08-17T06:28:39;18.00;99.90
27376;DHT22;14844;51.302;6.354;2023-08-17T06:31:05;18.20;99.90
27376;DHT22;14844;51.302;6.354;2023-08-17T06:33:30;18.20;99.90
27376;DHT22;14844;51.302;6.354;2023-08-17T06:35:56;18.30;99.90
27376;DHT22;14844;51.302;6.354;2023-08-17T06:38:21;18.30;99.90
27376;DHT22;14844;51.302;6.354;2023-08-17T06:40:47;18.30;99.90
27376;DHT22;14844;51.302;6.354;2023-08-17T06:43:13;18.30;99.90
27376;DHT22;14844;51.302;6.354;2023-08-17T06:45:38;18.30;99.90
27376;DHT22;14844;51.302;6.354;2023-08-17T06:48:04;18.30;99.90
27376;DHT22;14844;51.302;6.354;2023-08-17T06:50:29;18.30;99.90
27376;DHT22;14844;51.302;6.354;2023-08-17T06:52:55;18.30;99.90
27376;DHT22;14844;51.302;6.354;2023-08-17T06:55:20;18.40;99.90
27376;DHT22;14844;51.302;6.354;2023-08-17T06:57:46;18.50;99.90
27376;DHT22;14844;51.302;6.354;2023-08-17T07:00:12;18.50;99.90
27376;DHT22;14844;51.302;6.354;2023-08-17T07:02:38;18.60;99.90
27376;DHT22;14844;51.302;6.354;2023-08-17T07:05:04;18.60;99.90
27376;DHT22;14844;51.302;6.354;2023-08-17T07:07:30;18.80;99.90
27376;DHT22;14844;51.302;6.354;2023-08-17T07:09:57;18.90;99.90
27376;DHT22;14844;51.302;6.354;2023-08-17T07:12:22;18.90;99.90
27376;DHT22;14844;51.302;6.354;2023-08-17T07:14:49;19.00;99.90
27376;DHT22;14844;51.302;6.354;2023-08-17T07:17:15;19.10;99.90
27376;DHT22;14844;51.302;6.354;2023-08-17T07:19:40;19.30;99.90
27376;DHT22;14844;51.302;6.354;2023-08-17T07:22:06;19.20;99.90
27376;DHT22;14844;51.302;6.354;2023-08-17T07:24:32;19.20;99.90
27376;DHT22;14844;51.302;6.354;2023-08-17T07:26:57;19.10;99.90
27376;DHT22;14844;51.302;6.354;2023-08-17T07:29:23;19.20;99.90
27376;DHT22;14844;51.302;6.354;2023-08-17T07:31:48;19.20;99.90
27376;DHT22;14844;51.302;6.354;2023-08-17T07:34:13;19.30;99.90
27376;DHT22;14844;51.302;6.354;2023-08-17T07:36:39;19.20;99.90
27376;DHT22;14844;51.302;6.354;2023-08-17T07:39:04;19.30;99.90
27376;DHT22;14844;51.302;6.354;2023-08-17T07:41:30;19.40;99.90
27376;DHT22;14844;51.302;6.354;2023-08-17T07:43:55;19.30;99.90
27376;DHT22;14844;51.302;6.354;2023-08-17T07:46:21;19.40;99.90
27376;DHT22;14844;51.302;6.354;2023-08-17T07:48:46;19.40;99.90
27376;DHT22;14844;51.302;6.354;2023-08-17T07:51:12;19.30;99.90
27376;DHT22;14844;51.302;6.354;2023-08-17T07:53:38;19.30;99.90
27376;DHT22;14844;51.302;6.354;2023-08-17T07:56:03;19.40;99.90
27376;DHT22;14844;51.302;6.354;2023-08-17T07:58:29;19.50;99.90
27376;DHT22;14844;51.302;6.354;2023-08-17T08:00:54;19.60;99.90
27376;DHT22;14844;51.302;6.354;2023-08-17T08:03:20;19.80;99.90
27376;DHT22;14844;51.302;6.354;2023-08-17T08:05:45;20.00;99.90
27376;DHT22;14844;51.302;6.354;2023-08-17T08:08:11;20.10;99.90
27376;DHT22;14844;51.302;6.354;2023-08-17T08:10:36;20.20;99.90
27376;DHT22;14844;51.302;6.354;2023-08-17T08:13:02;20.30;99.90
27376;DHT22;14844;51.302;6.354;2023-08-17T08:15:28;20.30;99.90
27376;DHT22;14844;51.302;6.354;2023-08-17T08:17:53;20.30;99.90
27376;DHT22;14844;51.302;6.354;2023-08-17T08:20:19;20.40;99.90
27376;DHT22;14844;51.302;6.354;2023-08-17T08:22:45;20.50;99.90
27376;DHT22;14844;51.302;6.354;2023-08-17T08:25:10;20.50;99.90
27376;DHT22;14844;51.302;6.354;2023-08-17T08:27:36;20.40;99.90
27376;DHT22;14844;51.302;6.354;2023-08-17T08:30:01;20.40;99.90
27376;DHT22;14844;51.302;6.354;2023-08-17T08:32:27;20.40;99.90
27376;DHT22;14844;51.302;6.354;2023-08-17T08:34:52;20.40;99.90
27376;DHT22;14844;51.302;6.354;2023-08-17T08:37:18;20.40;99.90
27376;DHT22;14844;51.302;6.354;2023-08-17T08:39:50;20.50;99.90
27376;DHT22;14844;51.302;6.354;2023-08-17T08:42:16;20.50;99.90
27376;DHT22;14844;51.302;6.354;2023-08-17T08:44:42;20.40;99.90
27376;DHT22;14844;51.302;6.354;2023-08-17T08:47:07;20.30;99.90
27376;DHT22;14844;51.302;6.354;2023-08-17T08:49:33;20.30;99.90
27376;DHT22;14844;51.302;6.354;2023-08-17T08:52:00;20.30;99.90
27376;DHT22;14844;51.302;6.354;2023-08-17T08:54:27;20.30;99.90
27376;DHT22;14844;51.302;6.354;2023-08-17T08:56:54;20.10;99.90
27376;DHT22;14844;51.302;6.354;2023-08-17T08:59:23;20.00;99.90
27376;DHT22;14844;51.302;6.354;2023-08-17T09:01:49;19.90;99.90
27376;DHT22;14844;51.302;6.354;2023-08-17T09:04:14;19.80;99.90
27376;DHT22;14844;51.302;6.354;2023-08-17T09:06:41;19.70;99.90
27376;DHT22;14844;51.302;6.354;2023-08-17T09:09:07;19.70;99.90
27376;DHT22;14844;51.302;6.354;2023-08-17T09:11:33;19.70;99.90
27376;DHT22;14844;51.302;6.354;2023-08-17T09:13:58;19.80;99.90
27376;DHT22;14844;51.302;6.354;2023-08-17T09:16:24;19.90;99.90
27376;DHT22;14844;51.302;6.354;2023-08-17T09:18:49;20.00;99.90
27376;DHT22;14844;51.302;6.354;2023-08-17T09:21:24;20.20;99.90
27376;DHT22;14844;51.302;6.354;2023-08-17T09:23:51;20.20;99.90
27376;DHT22;14844;51.302;6.354;2023-08-17T09:26:17;20.20;99.90
27376;DHT22;14844;51.302;6.354;2023-08-17T09:28:44;20.30;99.90
27376;DHT22;14844;51.302;6.354;2023-08-17T09:31:10;20.30;99.90
27376;DHT22;14844;51.302;6.354;2023-08-17T09:33:36;20.30;99.90
27376;DHT22;14844;51.302;6.354;2023-08-17T09:36:02;20.30;99.90
27376;DHT22;14844;51.302;6.354;2023-08-17T09:38:28;20.40;99.90
27376;DHT22;14844;51.302;6.354;2023-08-17T09:40:53;20.50;99.90
27376;DHT22;14844;51.302;6.354;2023-08-17T09:43:19;20.80;99.90
27376;DHT22;14844;51.302;6.354;2023-08-17T09:45:47;20.90;99.90
27376;DHT22;14844;51.302;6.354;2023-08-17T09:48:18;20.80;99.90
27376;DHT22;14844;51.302;6.354;2023-08-17T09:50:44;20.80;99.90
27376;DHT22;14844;51.302;6.354;2023-08-17T09:53:17;20.60;99.90
27376;DHT22;14844;51.302;6.354;2023-08-17T09:55:45;20.40;99.90
27376;DHT22;14844;51.302;6.354;2023-08-17T09:58:12;20.30;99.90
27376;DHT22;14844;51.302;6.354;2023-08-17T10:00:43;20.30;99.90
27376;DHT22;14844;51.302;6.354;2023-08-17T10:03:09;20.40;99.90
27376;DHT22;14844;51.302;6.354;2023-08-17T10:05:35;20.30;99.90
27376;DHT22;14844;51.302;6.354;2023-08-17T10:08:02;20.40;99.90
27376;DHT22;14844;51.302;6.354;2023-08-17T10:10:29;20.30;99.90
27376;DHT22;14844;51.302;6.354;2023-08-17T10:15:29;20.50;99.90
27376;DHT22;14844;51.302;6.354;2023-08-17T10:17:58;20.60;99.90
27376;DHT22;14844;51.302;6.354;2023-08-17T10:20:24;20.70;99.90
27376;DHT22;14844;51.302;6.354;2023-08-17T10:22:52;20.70;99.90
27376;DHT22;14844;51.302;6.354;2023-08-17T10:25:19;20.70;99.90
27376;DHT22;14844;51.302;6.354;2023-08-17T10:27:45;20.60;99.90
27376;DHT22;14844;51.302;6.354;2023-08-17T10:30:11;20.60;99.90
27376;DHT22;14844;51.302;6.354;2023-08-17T10:32:36;20.70;99.90
27376;DHT22;14844;51.302;6.354;2023-08-17T10:35:02;20.80;99.90
27376;DHT22;14844;51.302;6.354;2023-08-17T10:37:28;20.90;99.90
27376;DHT22;14844;51.302;6.354;2023-08-17T10:39:54;21.10;99.90
27376;DHT22;14844;51.302;6.354;2023-08-17T10:42:32;21.30;99.90
27376;DHT22;14844;51.302;6.354;2023-08-17T10:44:58;21.30;99.90
27376;DHT22;14844;51.302;6.354;2023-08-17T10:47:28;21.30;99.90
27376;DHT22;14844;51.302;6.354;2023-08-17T10:49:58;21.30;99.90
27376;DHT22;14844;51.302;6.354;2023-08-17T10:54:52;21.20;99.90
27376;DHT22;14844;51.302;6.354;2023-08-17T11:00:13;20.90;99.90
27376;DHT22;14844;51.302;6.354;2023-08-17T11:02:45;20.90;99.90
27376;DHT22;14844;51.302;6.354;2023-08-17T11:05:11;21.10;99.90
27376;DHT22;14844;51.302;6.354;2023-08-17T11:07:38;21.20;99.90
27376;DHT22;14844;51.302;6.354;2023-08-17T11:10:11;21.40;99.90
27376;DHT22;14844;51.302;6.354;2023-08-17T11:12:36;21.50;99.90
27376;DHT22;14844;51.302;6.354;2023-08-17T11:15:02;21.40;99.90
27376;DHT22;14844;51.302;6.354;2023-08-17T11:17:28;21.40;99.90
27376;DHT22;14844;51.302;6.354;2023-08-17T11:19:53;21.30;99.90
27376;DHT22;14844;51.302;6.354;2023-08-17T11:22:19;21.20;99.90
27376;DHT22;14844;51.302;6.354;2023-08-17T11:24:44;21.10;99.90
27376;DHT22;14844;51.302;6.354;2023-08-17T11:27:10;21.10;99.90
27376;DHT22;14844;51.302;6.354;2023-08-17T11:29:36;21.20;99.90
27376;DHT22;14844;51.302;6.354;2023-08-17T11:32:03;21.40;99.90
27376;DHT22;14844;51.302;6.354;2023-08-17T11:34:29;21.40;99.90
27376;DHT22;14844;51.302;6.354;2023-08-17T11:36:56;21.50;99.90
27376;DHT22;14844;51.302;6.354;2023-08-17T11:39:22;21.70;99.90
27376;DHT22;14844;51.302;6.354;2023-08-17T11:41:48;21.90;99.90
27376;DHT22;14844;51.302;6.354;2023-08-17T11:44:14;22.20;99.90
27376;DHT22;14844;51.302;6.354;2023-08-17T11:46:40;22.50;99.90
27376;DHT22;14844;51.302;6.354;2023-08-17T11:49:06;22.80;99.90
27376;DHT22;14844;51.302;6.354;2023-08-17T11:51:31;23.10;99.90
27376;DHT22;14844;51.302;6.354;2023-08-17T11:54:00;23.40;99.90
27376;DHT22;14844;51.302;6.354;2023-08-17T11:56:26;23.70;99.90
27376;DHT22;14844;51.302;6.354;2023-08-17T11:58:51;23.90;99.90
27376;DHT22;14844;51.302;6.354;2023-08-17T12:01:17;23.90;99.90
27376;DHT22;14844;51.302;6.354;2023-08-17T12:03:42;23.90;99.90
27376;DHT22;14844;51.302;6.354;2023-08-17T12:06:08;24.00;99.90
27376;DHT22;14844;51.302;6.354;2023-08-17T12:08:34;23.80;99.90
27376;DHT22;14844;51.302;6.354;2023-08-17T12:11:00;23.50;99.90
27376;DHT22;14844;51.302;6.354;2023-08-17T12:13:34;23.30;99.90
27376;DHT22;14844;51.302;6.354;2023-08-17T12:16:00;23.20;99.90
27376;DHT22;14844;51.302;6.354;2023-08-17T12:18:26;23.20;99.90
27376;DHT22;14844;51.302;6.354;2023-08-17T12:20:52;23.10;99.90
27376;DHT22;14844;51.302;6.354;2023-08-17T12:23:18;23.30;99.90
27376;DHT22;14844;51.302;6.354;2023-08-17T12:25:43;23.60;99.90
27376;DHT22;14844;51.302;6.354;2023-08-17T12:28:11;23.60;99.90
27376;DHT22;14844;51.302;6.354;2023-08-17T12:30:37;23.70;99.90
27376;DHT22;14844;51.302;6.354;2023-08-17T12:33:03;23.90;99.90
27376;DHT22;14844;51.302;6.354;2023-08-17T12:35:29;23.90;99.90
27376;DHT22;14844;51.302;6.354;2023-08-17T12:37:55;24.00;99.90
27376;DHT22;14844;51.302;6.354;2023-08-17T12:40:20;23.90;99.90
27376;DHT22;14844;51.302;6.354;2023-08-17T12:42:46;23.80;99.90
27376;DHT22;14844;51.302;6.354;2023-08-17T12:45:12;23.80;99.90
27376;DHT22;14844;51.302;6.354;2023-08-17T12:47:37;24.10;99.90
27376;DHT22;14844;51.302;6.354;2023-08-17T12:50:03;24.10;99.90
27376;DHT22;14844;51.302;6.354;2023-08-17T12:52:29;24.10;99.90
27376;DHT22;14844;51.302;6.354;2023-08-17T12:54:54;24.10;99.90
27376;DHT22;14844;51.302;6.354;2023-08-17T12:57:20;23.90;99.90
27376;DHT22;14844;51.302;6.354;2023-08-17T12:59:45;24.00;99.90
27376;DHT22;14844;51.302;6.354;2023-08-17T13:02:11;23.90;99.90
27376;DHT22;14844;51.302;6.354;2023-08-17T13:04:36;23.70;99.90
27376;DHT22;14844;51.302;6.354;2023-08-17T13:07:02;23.50;99.90
27376;DHT22;14844;51.302;6.354;2023-08-17T13:09:27;23.40;99.90
27376;DHT22;14844;51.302;6.354;2023-08-17T13:11:53;23.40;99.90
27376;DHT22;14844;51.302;6.354;2023-08-17T13:14:18;23.30;99.90
27376;DHT22;14844;51.302;6.354;2023-08-17T13:16:43;23.30;99.90
27376;DHT22;14844;51.302;6.354;2023-08-17T13:19:09;23.30;99.90
27376;DHT22;14844;51.302;6.354;2023-08-17T13:21:34;23.20;99.90
27376;DHT22;14844;51.302;6.354;2023-08-17T13:24:00;23.10;99.90
27376;DHT22;14844;51.302;6.354;2023-08-17T13:26:25;22.90;99.90
27376;DHT22;14844;51.302;6.354;2023-08-17T13:28:51;22.70;99.90
27376;DHT22;14844;51.302;6.354;2023-08-17T13:31:16;22.60;99.90
27376;DHT22;14844;51.302;6.354;2023-08-17T13:33:42;22.50;99.90
27376;DHT22;14844;51.302;6.354;2023-08-17T13:36:07;22.40;99.90
27376;DHT22;14844;51.302;6.354;2023-08-17T13:38:33;22.40;99.90
27376;DHT22;14844;51.302;6.354;2023-08-17T13:40:58;22.30;99.90
27376;DHT22;14844;51.302;6.354;2023-08-17T13:43:24;22.20;99.90
27376;DHT22;14844;51.302;6.354;2023-08-17T13:45:49;22.10;99.90
27376;DHT22;14844;51.302;6.354;2023-08-17T13:48:15;22.10;99.90
27376;DHT22;14844;51.302;6.354;2023-08-17T13:50:40;21.90;99.90
27376;DHT22;14844;51.302;6.354;2023-08-17T13:53:05;21.90;99.90
27376;DHT22;14844;51.302;6.354;2023-08-17T13:55:31;21.90;99.90
27376;DHT22;14844;51.302;6.354;2023-08-17T13:57:57;22.10;99.90
27376;DHT22;14844;51.302;6.354;2023-08-17T14:00:23;22.30;99.90
27376;DHT22;14844;51.302;6.354;2023-08-17T14:02:49;22.30;99.90
27376;DHT22;14844;51.302;6.354;2023-08-17T14:05:14;22.30;99.90
27376;DHT22;14844;51.302;6.354;2023-08-17T14:07:40;22.10;99.90
27376;DHT22;14844;51.302;6.354;2023-08-17T14:10:05;22.10;99.90
27376;DHT22;14844;51.302;6.354;2023-08-17T14:12:31;22.00;99.90
27376;DHT22;14844;51.302;6.354;2023-08-17T14:14:56;22.00;99.90
27376;DHT22;14844;51.302;6.354;2023-08-17T14:17:22;22.10;99.90
27376;DHT22;14844;51.302;6.354;2023-08-17T14:19:47;22.10;99.90
27376;DHT22;14844;51.302;6.354;2023-08-17T14:22:13;22.10;99.90
27376;DHT22;14844;51.302;6.354;2023-08-17T14:24:38;22.10;99.90
27376;DHT22;14844;51.302;6.354;2023-08-17T14:27:04;22.20;99.90
27376;DHT22;14844;51.302;6.354;2023-08-17T14:29:29;22.20;99.90
27376;DHT22;14844;51.302;6.354;2023-08-17T14:31:55;22.20;99.90
27376;DHT22;14844;51.302;6.354;2023-08-17T14:34:20;22.20;99.90
27376;DHT22;14844;51.302;6.354;2023-08-17T14:36:46;22.20;99.90
27376;DHT22;14844;51.302;6.354;2023-08-17T14:39:12;22.10;99.90
27376;DHT22;14844;51.302;6.354;2023-08-17T14:41:37;22.00;99.90
27376;DHT22;14844;51.302;6.354;2023-08-17T14:44:03;22.00;99.90
27376;DHT22;14844;51.302;6.354;2023-08-17T14:46:29;22.00;99.90
27376;DHT22;14844;51.302;6.354;2023-08-17T14:48:54;21.90;99.90
27376;DHT22;14844;51.302;6.354;2023-08-17T14:51:20;21.90;99.90
27376;DHT22;14844;51.302;6.354;2023-08-17T14:53:45;21.90;99.90
27376;DHT22;14844;51.302;6.354;2023-08-17T14:56:11;21.80;99.90
27376;DHT22;14844;51.302;6.354;2023-08-17T14:58:36;21.80;99.90
27376;DHT22;14844;51.302;6.354;2023-08-17T15:01:02;21.70;99.90
27376;DHT22;14844;51.302;6.354;2023-08-17T15:03:28;21.80;99.90
27376;DHT22;14844;51.302;6.354;2023-08-17T15:05:53;21.70;99.90
27376;DHT22;14844;51.302;6.354;2023-08-17T15:08:19;21.70;99.90
27376;DHT22;14844;51.302;6.354;2023-08-17T15:10:45;21.60;99.90
27376;DHT22;14844;51.302;6.354;2023-08-17T15:13:11;21.70;99.90
27376;DHT22;14844;51.302;6.354;2023-08-17T15:15:36;21.60;99.90
27376;DHT22;14844;51.302;6.354;2023-08-17T15:18:02;21.70;99.90
27376;DHT22;14844;51.302;6.354;2023-08-17T15:20:28;21.80;99.90
27376;DHT22;14844;51.302;6.354;2023-08-17T15:22:55;21.90;99.90
27376;DHT22;14844;51.302;6.354;2023-08-17T15:25:21;22.10;99.90
27376;DHT22;14844;51.302;6.354;2023-08-17T15:27:46;22.20;99.90
27376;DHT22;14844;51.302;6.354;2023-08-17T15:30:11;22.40;99.90